Mushin, Nigeria
Current Conditions -  °F | °C
As of 12:00 PM on Sunday 23 Nov 2014 (Local Time) from DNMM Reporting Station
Broken Clouds Broken Clouds  
Wind Chill: 90°   Ceiling: 1400
Heat Index: 108°   Visibility: 6mi
Dew Point: 81°   Wind: 7mph
Humidity: 75%   Direction: 350°N
Pressure: 29.94"   Gusts: NA
Location:  6.53°N, 3.36°E
Report Text: DNMM 231100Z 35006KT 320V020 9999 BKN014 FEW020CB 32/27 Q1014 NOSIG
Loading
Personal Weather Stations






























Interactive Weather Map New forecast layout! Learn more

10-Day Weather Forecast

Advertisements
Track Severe Weather on mobile